Time;durP1;ratioP1;P1;durP2;ratioP2;P2;SDS_P1;SDS_P2;PMS_P1;PMS_P2;Temp;Humidity;BMP_temperature;BMP_pressure;BME280_temperature;BME280_humidity;BME280_pressure;Samples;Min_cycle;Max_cycle;Signal;HPM_P1;HPM_P2
2022/08/06 00:01:51;;;;;;;5.05;2.88;;;21.80;59.60;;;;;;5066094;28;20377;-59
2022/08/06 00:04:18;;;;;;;5.32;2.90;;;21.80;59.60;;;;;;5041610;28;20052;-60
2022/08/06 00:06:44;;;;;;;2.80;2.40;;;21.70;59.60;;;;;;5064997;28;20456;-60
2022/08/06 00:09:11;;;;;;;6.18;2.42;;;21.70;59.40;;;;;;5030708;28;20048;-60
2022/08/06 00:11:37;;;;;;;3.80;2.30;;;21.60;59.20;;;;;;5049583;28;20047;-60
2022/08/06 00:14:03;;;;;;;5.10;2.38;;;21.60;59.30;;;;;;5038246;28;20048;-59
2022/08/06 00:16:29;;;;;;;2.63;1.92;;;21.50;59.10;;;;;;5047072;28;20424;-60
2022/08/06 00:18:54;;;;;;;4.13;2.08;;;21.40;59.10;;;;;;5041062;28;20038;-61
2022/08/06 00:21:20;;;;;;;3.60;2.00;;;21.40;58.70;;;;;;5031545;28;20422;-60
2022/08/06 00:23:46;;;;;;;3.53;1.85;;;21.30;58.80;;;;;;5034881;28;20075;-60
2022/08/06 00:26:11;;;;;;;2.40;1.52;;;21.30;58.80;;;;;;5039342;28;20018;-60
2022/08/06 00:28:37;;;;;;;3.50;2.05;;;21.30;58.60;;;;;;5040488;28;20065;-59
2022/08/06 00:31:04;;;;;;;4.30;1.60;;;21.20;58.50;;;;;;5057345;28;20041;-60
2022/08/06 00:33:30;;;;;;;3.42;1.60;;;21.10;58.70;;;;;;5035956;28;20029;-61
2022/08/06 00:35:56;;;;;;;3.58;1.52;;;21.00;58.90;;;;;;5043149;28;20056;-60
2022/08/06 00:38:22;;;;;;;2.70;1.40;;;20.90;58.90;;;;;;5032655;28;20056;-59
2022/08/06 00:40:49;;;;;;;4.22;1.48;;;20.90;58.70;;;;;;5059502;28;20035;-61
2022/08/06 00:43:15;;;;;;;3.10;1.77;;;20.80;58.80;;;;;;5051625;28;20381;-59
2022/08/06 00:45:40;;;;;;;4.20;1.67;;;20.80;58.80;;;;;;5053896;28;20039;-60
2022/08/06 00:48:06;;;;;;;1.27;1.17;;;20.80;59.10;;;;;;5038946;28;20026;-60
2022/08/06 00:50:32;;;;;;;3.05;1.33;;;20.70;59.20;;;;;;5054785;28;20065;-60
2022/08/06 00:52:59;;;;;;;3.17;1.52;;;20.70;59.30;;;;;;5043675;28;20489;-60
2022/08/06 00:55:25;;;;;;;2.78;1.42;;;20.70;59.60;;;;;;5055709;28;20100;-60
2022/08/06 00:57:51;;;;;;;2.63;1.38;;;20.70;59.40;;;;;;5041958;28;20129;-60
2022/08/06 01:00:16;;;;;;;2.30;1.45;;;20.70;59.30;;;;;;5055414;28;20033;-60
2022/08/06 01:02:42;;;;;;;3.42;1.40;;;20.70;59.50;;;;;;5047933;28;20021;-59
2022/08/06 01:05:08;;;;;;;2.10;1.17;;;20.70;59.60;;;;;;5060336;28;20048;-60
2022/08/06 01:07:33;;;;;;;1.75;1.20;;;20.70;59.50;;;;;;5036307;28;20080;-60
2022/08/06 01:09:59;;;;;;;2.80;1.45;;;20.70;59.40;;;;;;5047076;28;20026;-60
2022/08/06 01:12:28;;;;;;;1.60;1.00;;;20.70;59.30;;;;;;5033303;28;20053;-60
2022/08/06 01:14:53;;;;;;;1.60;1.17;;;20.70;59.20;;;;;;5041871;28;21028;-60
2022/08/06 01:17:23;;;;;;;2.33;1.15;;;20.70;59.10;;;;;;5031342;28;20040;-59
2022/08/06 01:20:16;;;;;;;6.30;1.80;;;20.60;59.10;;;;;;5060806;28;20053;-60
2022/08/06 01:22:57;;;;;;;3.00;1.33;;;20.60;59.60;;;;;;5044110;28;20064;-59
2022/08/06 01:25:54;;;;;;;2.35;1.17;;;20.60;59.70;;;;;;5034027;28;20041;-61
2022/08/06 01:28:43;;;;;;;4.85;1.35;;;20.50;59.80;;;;;;5029472;28;20044;-62
2022/08/06 01:31:13;;;;;;;2.08;1.10;;;20.50;59.50;;;;;;5030633;28;20684;-60
2022/08/06 01:33:47;;;;;;;2.53;1.10;;;20.50;59.50;;;;;;5045660;28;20067;-60
2022/08/06 01:36:27;;;;;;;2.60;1.10;;;20.40;59.60;;;;;;5035849;28;20029;-61
2022/08/06 01:38:54;;;;;;;7.15;1.50;;;20.40;59.40;;;;;;5054300;28;20026;-60
2022/08/06 01:41:38;;;;;;;2.95;1.33;;;20.30;59.30;;;;;;5047546;28;20022;-60
2022/08/06 01:44:08;;;;;;;1.60;1.20;;;20.30;59.40;;;;;;5031744;28;20025;-62
2022/08/06 01:46:37;;;;;;;3.78;1.20;;;20.30;59.60;;;;;;5046996;28;20750;-60
2022/08/06 01:49:04;;;;;;;4.40;1.10;;;20.20;59.60;;;;;;5034127;28;20060;-60
2022/08/06 01:51:32;;;;;;;1.80;1.13;;;20.20;59.80;;;;;;5038378;28;20052;-59
2022/08/06 01:54:01;;;;;;;3.72;1.20;;;20.10;60.40;;;;;;5056595;28;20619;-60
2022/08/06 01:56:29;;;;;;;1.15;1.05;;;20.10;60.70;;;;;;5035700;28;20032;-60
2022/08/06 01:58:56;;;;;;;2.00;1.30;;;20.10;60.50;;;;;;5027263;28;20097;-59
2022/08/06 02:01:24;;;;;;;2.72;1.38;;;20.10;60.30;;;;;;5033867;28;20060;-60
2022/08/06 02:03:56;;;;;;;3.05;1.20;;;20.00;60.30;;;;;;5046447;28;20029;-60
2022/08/06 02:06:25;;;;;;;1.38;1.08;;;20.00;61.00;;;;;;5045690;28;20026;-60
2022/08/06 02:08:52;;;;;;;2.92;1.55;;;19.90;60.80;;;;;;5050151;28;20036;-59
2022/08/06 02:11:18;;;;;;;2.08;1.30;;;19.90;60.80;;;;;;5044268;28;20029;-59
2022/08/06 02:13:45;;;;;;;4.82;1.20;;;19.90;61.00;;;;;;5038977;28;20040;-60
2022/08/06 02:16:12;;;;;;;1.40;1.05;;;19.80;61.00;;;;;;5048983;28;20599;-59
2022/08/06 02:18:43;;;;;;;3.75;1.00;;;19.80;61.10;;;;;;5046884;28;20148;-59
2022/08/06 02:21:17;;;;;;;3.63;1.52;;;19.70;61.00;;;;;;5035812;28;20705;-60
2022/08/06 02:23:43;;;;;;;3.13;1.33;;;19.70;61.40;;;;;;5040542;28;20078;-59
2022/08/06 02:26:10;;;;;;;2.15;1.10;;;19.70;61.10;;;;;;5045209;28;20042;-59
2022/08/06 02:28:38;;;;;;;5.03;1.10;;;19.70;61.30;;;;;;5039233;28;20089;-60
2022/08/06 02:31:04;;;;;;;2.38;1.15;;;19.70;61.50;;;;;;5047487;28;20061;-60
2022/08/06 02:33:30;;;;;;;1.92;1.20;;;19.70;61.80;;;;;;5062713;28;20029;-61
2022/08/06 02:36:07;;;;;;;1.30;1.00;;;19.60;61.70;;;;;;5041038;28;20025;-61
2022/08/06 02:38:38;;;;;;;2.30;1.10;;;19.60;62.10;;;;;;5042102;28;20034;-60
2022/08/06 02:41:13;;;;;;;6.72;1.10;;;19.60;61.80;;;;;;5046684;28;20108;-60
2022/08/06 02:43:42;;;;;;;1.65;1.08;;;19.60;62.20;;;;;;5062785;28;20039;-59
2022/08/06 02:46:13;;;;;;;3.75;1.20;;;19.60;61.80;;;;;;5051183;28;20025;-60
2022/08/06 02:48:45;;;;;;;2.78;1.02;;;19.60;61.80;;;;;;5023888;28;20034;-60
2022/08/06 02:51:15;;;;;;;1.85;1.30;;;19.60;62.00;;;;;;5024581;28;20045;-59
2022/08/06 02:54:04;;;;;;;2.95;1.10;;;19.60;61.70;;;;;;5050041;28;20025;-60
2022/08/06 02:56:33;;;;;;;2.80;1.20;;;19.60;62.10;;;;;;5030367;28;20380;-59
2022/08/06 02:59:01;;;;;;;2.50;1.13;;;19.60;61.60;;;;;;5051988;28;20121;-60
2022/08/06 03:01:34;;;;;;;2.13;1.05;;;19.60;61.80;;;;;;5038869;28;20406;-60
2022/08/06 03:04:01;;;;;;;3.17;1.30;;;19.60;62.10;;;;;;5041840;28;20040;-60
2022/08/06 03:06:31;;;;;;;1.40;1.08;;;19.60;62.10;;;;;;5030984;28;20081;-59
2022/08/06 03:09:00;;;;;;;1.73;1.17;;;19.60;62.20;;;;;;5023764;28;20488;-61
2022/08/06 03:11:28;;;;;;;2.25;1.00;;;19.60;61.90;;;;;;5041067;28;20041;-59
2022/08/06 03:13:55;;;;;;;1.33;1.00;;;19.60;61.80;;;;;;5052140;28;20032;-60
2022/08/06 03:16:22;;;;;;;2.45;1.20;;;19.60;61.60;;;;;;5040556;28;20032;-59
2022/08/06 03:18:49;;;;;;;1.90;1.02;;;19.60;61.50;;;;;;5045981;28;20164;-59
2022/08/06 03:21:16;;;;;;;2.30;1.17;;;19.60;61.80;;;;;;5052366;28;20025;-59
2022/08/06 03:23:43;;;;;;;2.65;1.20;;;19.60;61.80;;;;;;5059663;28;20029;-60
2022/08/06 03:26:10;;;;;;;2.58;1.02;;;19.60;61.80;;;;;;5044700;28;20043;-61
2022/08/06 03:28:36;;;;;;;4.13;1.00;;;19.60;61.80;;;;;;5058824;28;20058;-59
2022/08/06 03:31:03;;;;;;;1.73;1.10;;;19.60;61.80;;;;;;5029836;28;20075;-60
2022/08/06 03:33:29;;;;;;;1.33;1.08;;;19.70;61.80;;;;;;5059418;28;20099;-60
2022/08/06 03:35:57;;;;;;;2.70;1.10;;;19.70;61.90;;;;;;5043345;28;20048;-59
2022/08/06 03:38:25;;;;;;;1.23;0.90;;;19.70;61.80;;;;;;5042091;28;20033;-59
2022/08/06 03:40:52;;;;;;;2.38;1.05;;;19.70;61.70;;;;;;5046061;28;20052;-59
2022/08/06 03:43:17;;;;;;;2.15;1.00;;;19.70;61.50;;;;;;5053363;28;20028;-59
2022/08/06 03:45:50;;;;;;;1.95;1.05;;;19.70;61.20;;;;;;5055020;28;20053;-61
2022/08/06 03:48:22;;;;;;;3.30;1.20;;;19.70;61.10;;;;;;5035697;28;20029;-60
2022/08/06 03:50:49;;;;;;;1.20;0.98;;;19.70;61.00;;;;;;5043462;28;20775;-61
2022/08/06 03:55:55;;;;;;;2.60;1.05;;;19.60;60.90;;;;;;5777838;22;20121;-60
2022/08/06 03:58:22;;;;;;;1.85;1.00;;;19.60;61.10;;;;;;5059080;28;20041;-59
2022/08/06 04:01:10;;;;;;;2.30;1.08;;;19.60;61.00;;;;;;5067465;28;20721;-61
2022/08/06 04:03:38;;;;;;;3.80;1.65;;;19.50;61.60;;;;;;5060082;28;20064;-60
2022/08/06 04:06:09;;;;;;;1.98;0.90;;;19.50;61.00;;;;;;5053129;28;20025;-61
2022/08/06 04:08:37;;;;;;;4.25;1.40;;;19.50;60.90;;;;;;5073976;28;20044;-59
2022/08/06 04:11:03;;;;;;;2.70;0.90;;;19.50;61.00;;;;;;5081442;28;20532;-60
2022/08/06 04:13:29;;;;;;;2.92;1.25;;;19.50;61.10;;;;;;5081299;28;20043;-62
2022/08/06 04:15:56;;;;;;;1.35;0.98;;;19.50;60.90;;;;;;5081243;28;20032;-61
2022/08/06 04:18:34;;;;;;;2.58;1.15;;;19.50;61.00;;;;;;5082008;28;20036;-60
2022/08/06 04:21:02;;;;;;;2.13;1.00;;;19.50;61.00;;;;;;5081072;28;20039;-61
2022/08/06 04:23:29;;;;;;;1.35;0.88;;;19.50;61.10;;;;;;5081521;28;20085;-60
2022/08/06 04:26:01;;;;;;;2.47;1.20;;;19.50;60.90;;;;;;5071686;28;20025;-59
2022/08/06 04:28:28;;;;;;;5.35;1.20;;;19.40;60.80;;;;;;5070315;28;20033;-61
2022/08/06 04:30:56;;;;;;;4.20;1.27;;;19.40;60.70;;;;;;5079517;28;20032;-61
2022/08/06 04:33:24;;;;;;;1.30;0.98;;;19.40;60.70;;;;;;5082880;28;20032;-60
2022/08/06 04:35:51;;;;;;;3.80;1.20;;;19.40;60.70;;;;;;5083630;28;20063;-61
2022/08/06 04:38:20;;;;;;;3.17;1.20;;;19.40;60.70;;;;;;5083798;28;20036;-62
2022/08/06 04:40:46;;;;;;;2.97;1.25;;;19.40;60.40;;;;;;5084924;28;20032;-61
2022/08/06 04:43:12;;;;;;;2.10;1.30;;;19.50;60.30;;;;;;5086981;28;20023;-61
2022/08/06 04:45:40;;;;;;;2.53;1.15;;;19.40;60.20;;;;;;5086901;28;20025;-60
2022/08/06 04:48:09;;;;;;;1.38;0.93;;;19.50;60.10;;;;;;5087312;28;20052;-60
2022/08/06 04:50:36;;;;;;;4.07;1.17;;;19.40;60.00;;;;;;5087022;28;20028;-60
2022/08/06 04:53:10;;;;;;;3.70;1.30;;;19.40;59.90;;;;;;5069975;28;20046;-60
2022/08/06 04:55:36;;;;;;;;;;;19.40;59.90;;;;;;5084770;28;20045;-60
2022/08/06 04:58:03;;;;;;;4.55;1.20;;;19.50;59.70;;;;;;5087304;28;19992;-60
2022/08/06 05:00:34;;;;;;;3.42;1.20;;;19.50;59.70;;;;;;5085880;28;20057;-60
2022/08/06 05:03:00;;;;;;;2.08;1.30;;;19.50;59.90;;;;;;5084942;28;20095;-61
2022/08/06 05:05:28;;;;;;;3.00;1.27;;;19.50;59.90;;;;;;5083082;28;20119;-61
2022/08/06 05:07:55;;;;;;;2.63;1.35;;;19.50;60.00;;;;;;5083195;28;20040;-60
2022/08/06 05:10:25;;;;;;;2.92;1.10;;;19.50;59.80;;;;;;5085115;28;20028;-60
2022/08/06 05:12:55;;;;;;;2.63;1.10;;;19.50;59.90;;;;;;5073338;28;20024;-59
2022/08/06 05:15:38;;;;;;;2.22;1.20;;;19.50;59.90;;;;;;5084784;28;20037;-61
2022/08/06 05:18:12;;;;;;;2.20;1.27;;;19.50;60.30;;;;;;5079084;28;20082;-61
2022/08/06 05:20:40;;;;;;;6.75;1.38;;;19.50;60.00;;;;;;5085038;28;20108;-62
2022/08/06 05:23:17;;;;;;;2.50;1.27;;;19.50;59.90;;;;;;5082979;28;20020;-60
2022/08/06 05:25:43;;;;;;;3.92;1.70;;;19.50;60.60;;;;;;5084055;28;20674;-61
2022/08/06 05:28:09;;;;;;;2.90;1.23;;;19.50;60.50;;;;;;5066876;28;20043;-61
2022/08/06 05:30:44;;;;;;;2.78;1.40;;;19.60;60.50;;;;;;5085492;28;20062;-61
2022/08/06 05:33:10;;;;;;;2.47;1.40;;;19.60;60.80;;;;;;5092812;28;20033;-59
2022/08/06 05:35:36;;;;;;;2.22;1.50;;;19.60;60.30;;;;;;5083895;28;20059;-60
2022/08/06 05:38:01;;;;;;;5.18;1.85;;;19.60;60.40;;;;;;5084050;28;20024;-61
2022/08/06 05:40:33;;;;;;;2.75;1.45;;;19.70;60.30;;;;;;5085273;28;20036;-60
2022/08/06 05:42:59;;;;;;;2.60;1.50;;;19.70;60.30;;;;;;5084623;28;20549;-62
2022/08/06 05:45:26;;;;;;;3.13;1.45;;;19.70;60.20;;;;;;5083473;28;20798;-60
2022/08/06 05:47:54;;;;;;;3.22;1.88;;;19.60;60.20;;;;;;5075741;28;20035;-61
2022/08/06 05:50:26;;;;;;;2.78;1.60;;;19.70;60.50;;;;;;5085023;28;20131;-61
2022/08/06 05:53:06;;;;;;;2.10;1.40;;;19.70;60.90;;;;;;5081391;28;20043;-61
2022/08/06 05:55:37;;;;;;;3.42;1.80;;;19.70;61.00;;;;;;5080811;28;20052;-61
2022/08/06 05:58:27;;;;;;;2.25;1.30;;;19.70;60.70;;;;;;5078429;28;20067;-60
2022/08/06 06:00:53;;;;;;;1.67;1.48;;;19.80;60.80;;;;;;5085359;28;20781;-61
2022/08/06 06:03:23;;;;;;;3.28;2.00;;;19.80;60.50;;;;;;5079508;28;20032;-61
2022/08/06 06:05:49;;;;;;;3.08;1.55;;;19.90;60.40;;;;;;5081894;28;20544;-60
2022/08/06 06:08:15;;;;;;;4.93;1.90;;;19.90;60.20;;;;;;5083410;28;20056;-60
2022/08/06 06:10:41;;;;;;;2.47;1.60;;;19.80;59.90;;;;;;5071152;28;20032;-61
2022/08/06 06:13:07;;;;;;;2.75;1.80;;;19.80;59.90;;;;;;5082722;28;20067;-61
2022/08/06 06:15:45;;;;;;;3.50;1.83;;;19.90;59.90;;;;;;5083180;28;20498;-60
2022/08/06 06:18:28;;;;;;;2.85;1.60;;;19.90;59.90;;;;;;5081057;28;20032;-61
2022/08/06 06:20:54;;;;;;;3.38;1.58;;;19.90;60.40;;;;;;5082385;28;20070;-60
2022/08/06 06:23:56;;;;;;;2.75;1.50;;;20.00;59.80;;;;;;5081771;28;20033;-61
2022/08/06 06:26:42;;;;;;;2.15;1.45;;;20.10;60.00;;;;;;5082747;28;20628;-61
2022/08/06 06:29:34;;;;;;;2.40;1.42;;;20.10;60.00;;;;;;5075626;28;20027;-61
2022/08/06 06:32:01;;;;;;;4.43;1.63;;;20.20;59.70;;;;;;5074582;28;20032;-61
2022/08/06 06:34:33;;;;;;;4.82;1.80;;;20.30;59.60;;;;;;5077220;28;20025;-61
2022/08/06 06:37:13;;;;;;;4.15;1.92;;;20.40;59.80;;;;;;5073481;28;20028;-60
2022/08/06 06:39:51;;;;;;;3.30;1.70;;;20.50;59.10;;;;;;5083333;28;20056;-61
2022/08/06 06:42:24;;;;;;;4.78;1.67;;;20.50;58.80;;;;;;5065458;28;20052;-61
2022/08/06 06:45:04;;;;;;;2.72;1.17;;;20.70;59.20;;;;;;5081050;28;20028;-62
2022/08/06 06:47:32;;;;;;;2.13;1.30;;;20.80;59.10;;;;;;5080465;28;20040;-60
2022/08/06 06:50:36;;;;;;;3.00;1.50;;;20.90;58.90;;;;;;5063274;28;20031;-60
2022/08/06 06:53:03;;;;;;;5.07;1.50;;;21.00;58.50;;;;;;5019437;28;20072;-62
2022/08/06 06:55:36;;;;;;;2.50;1.60;;;21.20;58.20;;;;;;5021367;28;20211;-62
2022/08/06 06:58:27;;;;;;;3.75;1.45;;;21.30;58.00;;;;;;5022722;28;20033;-60
2022/08/06 07:00:55;;;;;;;3.03;1.80;;;21.50;58.20;;;;;;5015897;28;20092;-60
2022/08/06 07:03:23;;;;;;;3.15;1.80;;;21.60;57.40;;;;;;5025218;28;20038;-61
2022/08/06 07:05:50;;;;;;;2.90;1.80;;;21.70;57.20;;;;;;5027321;28;20072;-60
2022/08/06 07:08:20;;;;;;;4.63;1.92;;;21.80;56.60;;;;;;5015733;28;20735;-61
2022/08/06 07:10:46;;;;;;;4.72;1.70;;;21.90;56.70;;;;;;5008348;28;20064;-60
2022/08/06 07:13:17;;;;;;;2.17;1.85;;;21.90;56.50;;;;;;5025352;28;20064;-60
2022/08/06 07:15:44;;;;;;;3.67;1.90;;;21.90;55.60;;;;;;5030524;28;20062;-61
2022/08/06 07:18:11;;;;;;;5.35;2.50;;;21.90;55.70;;;;;;5004319;28;20040;-61
2022/08/06 07:20:42;;;;;;;3.08;2.17;;;21.90;55.40;;;;;;5029570;28;20048;-62
2022/08/06 07:23:10;;;;;;;4.95;2.22;;;22.00;55.00;;;;;;5020711;28;20101;-60
2022/08/06 07:25:43;;;;;;;4.63;2.22;;;21.80;55.30;;;;;;5021988;28;20033;-61
2022/08/06 07:28:10;;;;;;;5.00;2.00;;;21.80;55.30;;;;;;5023384;28;20060;-61
2022/08/06 07:30:37;;;;;;;3.50;2.13;;;21.70;55.60;;;;;;5082154;28;20031;-61
2022/08/06 07:33:04;;;;;;;4.78;2.10;;;21.60;55.40;;;;;;5080933;28;20130;-60
2022/08/06 07:35:31;;;;;;;5.03;2.47;;;21.60;56.00;;;;;;5081703;28;20455;-61
2022/08/06 07:38:00;;;;;;;6.22;2.10;;;21.60;55.70;;;;;;5062185;28;20245;-61
2022/08/06 07:40:29;;;;;;;4.85;2.20;;;21.60;55.50;;;;;;5081723;28;20020;-61
2022/08/06 07:43:01;;;;;;;4.22;2.10;;;21.60;55.30;;;;;;5081403;28;20033;-61
2022/08/06 07:45:32;;;;;;;5.18;2.28;;;21.70;55.40;;;;;;5074226;28;20054;-60
2022/08/06 07:48:04;;;;;;;5.22;1.58;;;21.70;55.70;;;;;;5080642;28;20033;-60
2022/08/06 07:50:32;;;;;;;5.68;2.55;;;21.70;55.90;;;;;;5080408;28;20025;-61
2022/08/06 07:52:58;;;;;;;5.93;2.20;;;21.80;55.60;;;;;;5081178;28;20041;-62
2022/08/06 07:55:26;;;;;;;5.28;2.72;;;21.90;55.60;;;;;;5082409;28;20032;-61
2022/08/06 07:57:55;;;;;;;6.93;2.40;;;21.90;54.80;;;;;;5072932;28;20024;-60
2022/08/06 08:00:22;;;;;;;4.63;2.50;;;21.90;54.80;;;;;;5087450;28;20028;-61
2022/08/06 08:08:21;;;;;;;5.40;2.10;;;22.00;54.80;;;;;;5089274;28;20044;-61
2022/08/06 08:10:47;;;;;;;4.45;2.30;;;22.10;54.90;;;;;;5091506;28;20032;-62
2022/08/06 08:13:18;;;;;;;2.40;1.83;;;22.10;54.70;;;;;;5089769;28;20036;-61
2022/08/06 08:15:46;;;;;;;4.97;2.17;;;22.30;54.60;;;;;;5079244;28;20035;-61
2022/08/06 08:18:12;;;;;;;5.97;1.77;;;22.40;54.50;;;;;;5084244;28;20029;-62
2022/08/06 08:20:39;;;;;;;3.75;2.03;;;22.50;54.40;;;;;;5067483;28;20472;-61
2022/08/06 08:23:08;;;;;;;2.40;2.05;;;22.50;54.00;;;;;;5078300;28;20024;-61
2022/08/06 08:25:35;;;;;;;5.47;1.70;;;22.60;54.00;;;;;;5089691;28;20032;-62
2022/08/06 08:28:00;;;;;;;3.75;1.75;;;22.70;53.70;;;;;;5089155;28;20033;-62
2022/08/06 08:30:26;;;;;;;5.93;2.20;;;22.70;53.90;;;;;;5093673;28;20133;-61
2022/08/06 08:32:52;;;;;;;2.38;1.95;;;22.70;53.50;;;;;;5084849;28;20701;-61
2022/08/06 08:35:17;;;;;;;4.10;1.83;;;22.80;53.30;;;;;;5081215;28;20040;-61
2022/08/06 08:37:43;;;;;;;5.63;3.17;;;22.80;53.20;;;;;;5084146;28;20036;-62
2022/08/06 08:40:11;;;;;;;5.97;2.13;;;22.80;52.90;;;;;;5084997;28;20792;-61
2022/08/06 08:42:42;;;;;;;5.63;2.28;;;22.80;52.80;;;;;;5084060;28;20037;-63
2022/08/06 08:45:08;;;;;;;3.88;1.92;;;22.80;53.10;;;;;;5082617;28;20055;-62
2022/08/06 08:47:37;;;;;;;7.15;1.95;;;22.80;53.00;;;;;;5083923;28;20035;-61
2022/08/06 08:50:03;;;;;;;2.10;1.40;;;22.80;54.00;;;;;;5083834;28;20031;-62
2022/08/06 08:52:33;;;;;;;2.97;1.73;;;22.90;53.40;;;;;;5084047;28;20040;-63
2022/08/06 08:55:03;;;;;;;5.20;2.30;;;23.00;52.90;;;;;;5074290;28;20245;-61
2022/08/06 08:57:30;;;;;;;2.35;1.40;;;23.10;53.20;;;;;;5084733;28;20054;-61
2022/08/06 08:59:56;;;;;;;10.57;1.60;;;23.20;52.80;;;;;;5084048;28;20036;-61
2022/08/06 09:02:23;;;;;;;2.92;1.35;;;23.40;52.80;;;;;;5014329;28;20690;-61
2022/08/06 09:04:49;;;;;;;4.28;1.75;;;23.50;52.80;;;;;;5085030;28;20032;-63
2022/08/06 09:07:15;;;;;;;2.63;1.40;;;23.60;52.00;;;;;;5084899;28;20020;-62
2022/08/06 09:09:41;;;;;;;3.78;1.40;;;23.80;52.50;;;;;;5081022;28;20032;-61
2022/08/06 09:12:07;;;;;;;4.88;1.70;;;24.00;52.50;;;;;;5078555;28;20490;-61
2022/08/06 09:14:37;;;;;;;3.15;1.80;;;24.20;51.10;;;;;;5066144;28;20110;-61
2022/08/06 09:17:05;;;;;;;2.17;1.20;;;24.30;50.70;;;;;;5083738;28;20020;-62
2022/08/06 09:19:31;;;;;;;5.45;1.33;;;24.40;50.30;;;;;;5092315;28;20056;-62
2022/08/06 09:21:58;;;;;;;3.67;1.50;;;24.50;50.00;;;;;;5086154;28;20030;-63
2022/08/06 09:24:24;;;;;;;5.03;1.58;;;24.60;49.10;;;;;;5083293;28;20032;-63
2022/08/06 09:27:10;;;;;;;3.17;1.30;;;24.70;49.30;;;;;;5083445;28;20466;-62
2022/08/06 09:29:46;;;;;;;1.35;1.13;;;24.90;48.80;;;;;;5083043;28;20039;-61
2022/08/06 09:32:12;;;;;;;2.85;1.45;;;25.00;48.00;;;;;;5072166;28;20043;-61
2022/08/06 09:34:39;;;;;;;2.97;1.30;;;25.00;47.90;;;;;;5080667;28;20028;-62
2022/08/06 09:37:05;;;;;;;3.10;1.00;;;25.00;47.00;;;;;;5084533;28;20103;-63
2022/08/06 09:39:35;;;;;;;1.92;1.20;;;25.00;47.10;;;;;;5094878;28;20028;-61
2022/08/06 09:42:01;;;;;;;2.03;1.00;;;25.00;46.40;;;;;;5089178;28;20024;-62
2022/08/06 09:44:26;;;;;;;1.83;1.10;;;25.00;46.60;;;;;;5084355;28;20099;-62
2022/08/06 09:46:53;;;;;;;2.92;1.60;;;25.00;47.00;;;;;;5082821;28;20083;-62
2022/08/06 09:49:19;;;;;;;5.35;1.10;;;25.00;47.10;;;;;;5085273;28;20042;-62
2022/08/06 09:51:45;;;;;;;53.17;3.85;;;25.00;46.70;;;;;;5082801;28;20060;-63
2022/08/06 09:54:15;;;;;;;1.67;1.13;;;25.00;46.10;;;;;;5077066;28;20024;-61
2022/08/06 09:56:45;;;;;;;2.45;1.27;;;25.00;46.40;;;;;;5085704;28;20040;-62
2022/08/06 09:59:12;;;;;;;4.28;1.10;;;25.00;46.00;;;;;;5068076;28;20081;-62
2022/08/06 10:01:44;;;;;;;2.70;1.15;;;25.00;46.00;;;;;;5083498;28;20051;-62
2022/08/06 10:04:22;;;;;;;1.85;1.20;;;25.00;46.10;;;;;;5084333;28;20062;-63
2022/08/06 10:06:54;;;;;;;6.50;1.30;;;25.00;46.20;;;;;;5082518;28;20039;-61
2022/08/06 10:09:20;;;;;;;2.05;1.13;;;25.10;45.90;;;;;;5083868;28;20037;-63
2022/08/06 10:11:46;;;;;;;2.72;1.17;;;25.20;46.80;;;;;;5064929;28;20051;-61
2022/08/06 10:14:22;;;;;;;2.10;1.02;;;25.40;46.70;;;;;;5082888;28;20652;-61
2022/08/06 10:17:04;;;;;;;2.80;1.02;;;25.50;46.50;;;;;;5086392;28;20607;-62
2022/08/06 10:19:30;;;;;;;3.65;1.30;;;25.70;46.00;;;;;;5095891;28;20052;-62
2022/08/06 10:22:06;;;;;;;1.73;1.05;;;25.70;45.00;;;;;;5083260;28;20024;-61
2022/08/06 10:24:40;;;;;;;2.00;1.25;;;25.80;45.90;;;;;;5086344;28;20016;-62
2022/08/06 10:27:07;;;;;;;3.13;1.30;;;25.90;45.50;;;;;;5017323;28;20020;-61
2022/08/06 10:29:39;;;;;;;2.05;1.23;;;26.00;45.20;;;;;;5078072;28;20067;-62
2022/08/06 10:32:14;;;;;;;6.43;1.20;;;26.00;45.00;;;;;;5081383;28;20052;-62
2022/08/06 10:34:41;;;;;;;2.03;0.80;;;26.10;44.70;;;;;;5083614;28;20035;-62
2022/08/06 10:37:10;;;;;;;1.70;1.10;;;26.10;44.80;;;;;;5100628;28;20020;-62
2022/08/06 10:39:39;;;;;;;3.83;1.67;;;26.10;45.30;;;;;;5083590;28;20028;-64
2022/08/06 10:42:05;;;;;;;2.83;1.60;;;26.10;44.50;;;;;;5089094;28;20470;-61
2022/08/06 10:44:33;;;;;;;4.00;2.38;;;26.00;44.30;;;;;;5103845;28;20068;-61
2022/08/06 10:47:02;;;;;;;3.80;1.85;;;26.00;44.40;;;;;;5067185;28;20383;-62
2022/08/06 10:49:30;;;;;;;3.17;1.10;;;25.90;43.90;;;;;;5083332;28;20021;-62
2022/08/06 10:51:57;;;;;;;7.80;1.40;;;25.90;43.80;;;;;;5078512;28;20035;-61
2022/08/06 10:54:24;;;;;;;1.67;1.33;;;25.80;44.20;;;;;;5080410;28;20043;-62
2022/08/06 10:56:50;;;;;;;1.80;1.10;;;25.80;43.90;;;;;;5076229;28;20052;-62
2022/08/06 10:59:17;;;;;;;2.25;1.20;;;25.80;44.00;;;;;;5101460;28;20615;-61
2022/08/06 11:02:05;;;;;;;1.85;1.00;;;25.90;44.00;;;;;;5073944;28;20036;-62
2022/08/06 11:04:41;;;;;;;1.73;0.70;;;26.00;43.00;;;;;;5059504;28;20067;-62
2022/08/06 11:07:34;;;;;;;1.63;1.02;;;26.10;43.60;;;;;;5065817;28;20025;-62
2022/08/06 11:10:08;;;;;;;2.30;0.90;;;26.20;42.20;;;;;;5083264;28;20076;-61
2022/08/06 11:12:57;;;;;;;1.40;0.70;;;26.30;42.70;;;;;;5081890;28;20803;-60
2022/08/06 11:15:23;;;;;;;2.83;1.10;;;26.40;42.70;;;;;;5083226;28;20040;-61
2022/08/06 11:17:54;;;;;;;3.88;1.05;;;26.60;42.60;;;;;;5078036;28;20036;-61
2022/08/06 11:20:32;;;;;;;2.97;1.00;;;26.70;42.40;;;;;;5076588;28;20037;-61
2022/08/06 11:23:00;;;;;;;5.03;0.90;;;26.80;43.50;;;;;;5082228;28;20111;-61
2022/08/06 11:25:51;;;;;;;1.70;0.95;;;26.90;42.90;;;;;;5093167;28;20088;-62
2022/08/06 11:28:40;;;;;;;3.03;0.80;;;27.00;42.90;;;;;;5089096;28;20032;-62
2022/08/06 11:31:26;;;;;;;1.50;0.80;;;27.10;41.30;;;;;;5054376;28;20055;-62
2022/08/06 11:34:04;;;;;;;3.25;0.73;;;27.20;42.30;;;;;;5079866;28;20033;-62
2022/08/06 11:36:53;;;;;;;1.83;0.90;;;27.40;42.20;;;;;;5081588;28;20044;-61
2022/08/06 11:39:20;;;;;;;2.03;0.80;;;27.50;40.50;;;;;;5075848;28;20397;-62
2022/08/06 11:41:57;;;;;;;3.40;0.90;;;27.50;40.80;;;;;;5083598;28;20055;-63
2022/08/06 11:44:36;;;;;;;3.40;1.30;;;27.60;39.50;;;;;;5090844;28;20029;-62
2022/08/06 11:47:18;;;;;;;1.05;0.80;;;27.60;40.20;;;;;;5078920;28;20098;-62
2022/08/06 11:49:45;;;;;;;3.92;1.60;;;27.60;39.70;;;;;;5082046;28;20032;-61
2022/08/06 11:52:30;;;;;;;4.43;0.95;;;27.50;39.40;;;;;;5079662;28;20040;-62
2022/08/06 11:55:01;;;;;;;1.25;0.60;;;27.40;39.20;;;;;;5082188;28;20114;-62
2022/08/06 11:57:27;;;;;;;1.35;0.80;;;27.50;39.70;;;;;;5081755;28;20041;-61
2022/08/06 11:59:55;;;;;;;0.95;0.70;;;27.50;39.00;;;;;;5083866;28;20127;-61
2022/08/06 12:02:39;;;;;;;5.35;1.08;;;27.60;38.80;;;;;;5080917;28;20032;-62
2022/08/06 12:05:25;;;;;;;3.90;0.85;;;27.60;40.00;;;;;;5084441;28;20028;-61
2022/08/06 12:08:22;;;;;;;3.95;1.00;;;27.70;38.80;;;;;;5059485;28;20033;-61
2022/08/06 12:11:28;;;;;;;5.47;2.40;;;27.70;38.90;;;;;;5081050;28;20051;-62
2022/08/06 12:13:54;;;;;;;4.93;1.05;;;27.60;39.10;;;;;;5083115;28;20047;-61
2022/08/06 12:16:34;;;;;;;5.47;2.08;;;27.60;39.70;;;;;;5083726;28;20037;-62
2022/08/06 12:19:03;;;;;;;3.53;1.13;;;27.70;39.30;;;;;;5081547;28;20111;-62
2022/08/06 12:21:29;;;;;;;1.52;0.70;;;27.70;38.80;;;;;;5081469;28;20035;-62
2022/08/06 12:23:55;;;;;;;2.38;0.80;;;27.60;38.50;;;;;;5075917;28;20036;-61
2022/08/06 12:26:22;;;;;;;1.83;0.70;;;27.60;39.30;;;;;;5084256;28;21018;-61
2022/08/06 12:28:49;;;;;;;2.38;1.35;;;27.60;38.60;;;;;;5083999;28;20042;-61
2022/08/06 12:31:29;;;;;;;3.05;1.00;;;27.60;39.20;;;;;;5081990;28;20033;-62
2022/08/06 12:33:54;;;;;;;1.52;0.70;;;27.70;38.00;;;;;;5084082;28;20081;-61
2022/08/06 12:36:24;;;;;;;2.20;0.77;;;27.70;38.50;;;;;;5084262;28;20135;-62
2022/08/06 12:38:56;;;;;;;1.33;0.80;;;27.80;38.00;;;;;;5082575;28;20039;-64
2022/08/06 12:41:21;;;;;;;2.60;1.00;;;27.80;37.90;;;;;;5085007;28;20048;-62
2022/08/06 12:43:47;;;;;;;2.53;1.13;;;27.80;38.50;;;;;;5084147;28;20051;-62
2022/08/06 12:46:15;;;;;;;2.10;1.10;;;27.90;38.20;;;;;;5083087;28;20107;-62
2022/08/06 12:48:48;;;;;;;2.60;0.95;;;27.90;38.50;;;;;;5065241;28;20028;-62
2022/08/06 12:51:14;;;;;;;4.68;2.05;;;27.90;37.40;;;;;;5083001;28;20024;-62
2022/08/06 12:53:46;;;;;;;3.75;0.88;;;27.90;38.20;;;;;;5069033;28;20041;-63
2022/08/06 12:56:12;;;;;;;1.38;0.70;;;27.90;37.50;;;;;;5061803;28;20052;-64
2022/08/06 12:58:40;;;;;;;1.70;0.98;;;28.00;38.80;;;;;;5080829;28;20028;-63
2022/08/06 13:01:10;;;;;;;1.38;0.70;;;28.00;38.00;;;;;;5083349;28;20028;-62
2022/08/06 13:03:39;;;;;;;6.80;0.98;;;28.10;36.60;;;;;;5081729;28;20035;-63
2022/08/06 13:06:07;;;;;;;0.80;0.70;;;28.20;37.30;;;;;;5084654;28;20054;-63
2022/08/06 13:08:33;;;;;;;2.40;1.02;;;28.10;37.40;;;;;;5080298;28;20032;-63
2022/08/06 13:10:59;;;;;;;1.13;0.65;;;28.10;37.40;;;;;;5083724;28;20043;-63
2022/08/06 13:13:36;;;;;;;2.25;0.90;;;28.20;36.70;;;;;;5082106;28;20040;-63